createdAt,value
2023-04-18T08:09:06.063Z,10.44
2023-04-18T08:11:46.469Z,10.24
2023-04-18T08:14:23.641Z,10.09
2023-04-18T08:16:55.229Z,9.99
2023-04-18T08:19:42.648Z,9.94
2023-04-18T08:25:27.407Z,9.83
2023-04-18T08:28:04.161Z,9.80
2023-04-18T08:30:48.066Z,9.75
2023-04-18T08:33:23.784Z,9.77
2023-04-18T08:36:18.706Z,9.81
2023-04-18T08:38:59.068Z,9.81
2023-04-18T08:41:38.482Z,9.85
2023-04-18T08:44:08.319Z,9.89
2023-04-18T08:46:38.836Z,9.86
2023-04-18T08:49:12.018Z,9.85
2023-04-18T08:51:52.813Z,9.85
2023-04-18T08:54:33.826Z,9.86
2023-04-18T08:57:17.184Z,9.88
2023-04-18T08:59:50.350Z,9.88
2023-04-18T09:02:47.538Z,9.88
2023-04-18T09:05:26.141Z,9.88
2023-04-18T09:07:58.811Z,9.88
2023-04-18T09:10:30.745Z,9.92
2023-04-18T09:13:03.906Z,9.96
2023-04-18T09:15:35.201Z,9.96
2023-04-18T09:18:11.299Z,9.94
2023-04-18T09:20:43.215Z,9.95
2023-04-18T09:23:24.933Z,9.96
2023-04-18T09:25:55.313Z,10.00
2023-04-18T09:28:33.717Z,10.03
2023-04-18T09:31:12.421Z,10.06
2023-04-18T09:33:53.085Z,10.03
2023-04-18T09:36:31.823Z,10.04
2023-04-18T09:39:01.236Z,10.08
2023-04-18T09:41:34.367Z,10.12
2023-04-18T09:44:15.971Z,10.15
2023-04-18T09:46:49.500Z,10.12
2023-04-18T09:49:21.861Z,10.11
2023-04-18T09:51:53.992Z,10.14
2023-04-18T09:54:26.494Z,10.18
2023-04-18T09:56:56.914Z,10.19
2023-04-18T09:59:31.872Z,10.18
2023-04-18T10:02:05.855Z,10.14
2023-04-18T10:04:37.445Z,10.15
2023-04-18T10:07:07.781Z,10.15
2023-04-18T10:09:37.628Z,10.16
2023-04-18T10:12:07.773Z,10.22
2023-04-18T10:14:38.933Z,10.28
2023-04-18T10:17:09.922Z,10.32
2023-04-18T10:19:42.424Z,10.34
2023-04-18T10:22:13.603Z,10.39
2023-04-18T10:24:56.623Z,10.41
2023-04-18T10:27:47.331Z,10.44
2023-04-18T10:30:18.053Z,10.46
2023-04-18T10:32:47.220Z,10.44
2023-04-18T10:35:16.117Z,10.42
2023-04-18T10:38:09.376Z,10.46
2023-04-18T10:40:38.521Z,10.51
2023-04-18T10:43:08.138Z,10.53
2023-04-18T10:45:37.716Z,10.56
2023-04-18T10:48:33.963Z,10.58
2023-04-18T10:51:35.373Z,10.60
2023-04-18T10:54:07.756Z,10.61
2023-04-18T10:56:40.014Z,10.62
2023-04-18T10:59:13.557Z,10.64
2023-04-18T11:01:49.937Z,10.65
2023-04-18T11:04:22.735Z,10.65
2023-04-18T11:06:57.651Z,10.66
2023-04-18T11:09:26.646Z,10.71
2023-04-18T11:12:11.243Z,10.75
2023-04-18T11:14:46.244Z,10.78
2023-04-18T11:17:25.835Z,10.76
2023-04-18T11:20:06.336Z,10.73
2023-04-18T11:22:52.981Z,10.70
2023-04-18T11:25:26.456Z,10.72
2023-04-18T11:27:56.144Z,10.73
2023-04-18T11:30:26.260Z,10.77
2023-04-18T11:32:57.683Z,10.80
2023-04-18T11:35:27.767Z,10.82
2023-04-18T11:37:58.730Z,10.86
2023-04-18T11:40:28.015Z,10.93
2023-04-18T11:42:57.037Z,10.99
2023-04-18T11:45:26.212Z,11.01
2023-04-18T11:47:59.994Z,11.02
2023-04-18T11:50:30.212Z,11.02
2023-04-18T11:53:00.030Z,11.06
2023-04-18T11:55:29.606Z,11.13
2023-04-18T11:58:00.556Z,11.26
2023-04-18T12:00:39.103Z,11.44
2023-04-18T12:03:19.237Z,11.57
2023-04-18T12:05:48.499Z,11.61
2023-04-18T12:08:21.882Z,11.63
2023-04-18T12:10:53.731Z,11.65
2023-04-18T12:13:32.014Z,11.66
2023-04-18T12:16:02.553Z,11.64
2023-04-18T12:18:33.053Z,11.60
2023-04-18T12:21:06.119Z,11.56
2023-04-18T12:23:40.582Z,11.55
2023-04-18T12:26:18.447Z,11.51
2023-04-18T12:28:51.751Z,11.51
2023-04-18T12:31:22.763Z,11.59
2023-04-18T12:33:51.860Z,11.65
2023-04-18T12:36:22.450Z,11.70
2023-04-18T12:38:51.873Z,11.75
2023-04-18T12:41:22.584Z,11.76
2023-04-18T12:43:51.493Z,11.75
2023-04-18T12:46:20.208Z,11.75
2023-04-18T12:48:49.522Z,11.75
2023-04-18T12:51:18.383Z,11.76
2023-04-18T12:53:47.028Z,11.82
2023-04-18T12:56:15.964Z,11.87
2023-04-18T12:58:45.922Z,11.88
2023-04-18T13:01:14.798Z,11.90
2023-04-18T13:03:45.622Z,11.94
2023-04-18T13:06:18.919Z,11.89
2023-04-18T13:08:50.972Z,11.84
2023-04-18T13:11:21.178Z,11.75
2023-04-18T13:13:51.540Z,11.67
2023-04-18T13:16:21.857Z,11.65
2023-04-18T13:18:53.476Z,11.67
2023-04-18T13:21:25.348Z,11.66
2023-04-18T13:23:57.198Z,11.62
2023-04-18T13:26:37.958Z,11.56
2023-04-18T13:29:07.770Z,11.46
2023-04-18T13:31:40.182Z,11.41
2023-04-18T13:34:09.251Z,11.35
2023-04-18T13:36:39.218Z,11.29
2023-04-18T13:39:08.920Z,11.29
2023-04-18T13:41:43.557Z,11.31
2023-04-18T13:44:12.509Z,11.32
2023-04-18T13:46:42.201Z,11.32
2023-04-18T13:49:11.410Z,11.34
2023-04-18T13:51:41.330Z,11.38
2023-04-18T13:54:10.094Z,11.43
2023-04-18T13:56:39.468Z,11.49
2023-04-18T13:59:09.365Z,11.47
2023-04-18T14:01:38.894Z,11.47
2023-04-18T14:04:28.271Z,11.49
2023-04-18T14:07:06.649Z,11.60
2023-04-18T14:09:36.055Z,11.70
2023-04-18T14:12:06.292Z,11.78
2023-04-18T14:14:35.409Z,11.83
2023-04-18T14:17:06.864Z,11.83
2023-04-18T14:19:37.520Z,11.82
2023-04-18T14:22:07.871Z,11.89
2023-04-18T14:24:37.450Z,12.07
2023-04-18T14:27:06.155Z,12.23
2023-04-18T14:29:34.950Z,12.36
2023-04-18T14:32:03.674Z,12.48
2023-04-18T14:34:33.713Z,12.50
2023-04-18T14:37:04.284Z,12.52
2023-04-18T14:39:32.994Z,12.52
2023-04-18T14:42:01.990Z,12.49
2023-04-18T14:44:32.011Z,12.50
2023-04-18T14:47:01.863Z,12.54
2023-04-18T14:49:30.696Z,12.59
2023-04-18T14:52:00.869Z,12.63
2023-04-18T14:54:31.604Z,12.64
2023-04-18T14:57:02.164Z,12.62
2023-04-18T14:59:31.642Z,12.60
2023-04-18T15:02:01.037Z,12.63
2023-04-18T15:04:31.125Z,12.65
2023-04-18T15:06:59.790Z,12.64
2023-04-18T15:09:29.986Z,12.55
2023-04-18T15:12:00.441Z,12.45
2023-04-18T15:14:30.548Z,12.43
2023-04-18T15:17:00.164Z,12.47
2023-04-18T15:19:49.463Z,12.53
2023-04-18T15:22:18.306Z,12.59
2023-04-18T15:24:47.848Z,12.55
2023-04-18T15:27:17.771Z,12.51
2023-04-18T15:29:47.363Z,12.51
2023-04-18T15:32:16.654Z,12.56
2023-04-18T15:34:45.928Z,12.61
2023-04-18T15:37:16.476Z,12.61
2023-04-18T15:39:45.958Z,12.61
2023-04-18T15:42:14.765Z,12.61
2023-04-18T15:44:43.827Z,12.58
2023-04-18T15:47:12.378Z,12.51
2023-04-18T15:49:41.246Z,12.46
2023-04-18T15:52:10.541Z,12.45
2023-04-18T15:54:42.038Z,12.41
2023-04-18T15:57:11.649Z,12.41
2023-04-18T15:59:41.240Z,12.46
2023-04-18T16:02:10.593Z,12.54
2023-04-18T16:04:39.509Z,12.63
2023-04-18T16:11:01.546Z,12.58
2023-04-18T16:13:31.351Z,12.53
2023-04-18T16:15:59.820Z,12.51
2023-04-18T16:18:28.431Z,12.51
2023-04-18T16:20:58.991Z,12.54
2023-04-18T16:23:27.532Z,12.55
2023-04-18T16:25:57.555Z,12.56
2023-04-18T16:28:27.244Z,12.61
2023-04-18T16:30:56.990Z,12.64
2023-04-18T16:33:26.263Z,12.60
2023-04-18T16:35:59.317Z,12.55
2023-04-18T16:38:28.867Z,12.50
2023-04-18T16:40:59.078Z,12.43
2023-04-18T16:43:29.578Z,12.42
2023-04-18T16:45:58.343Z,12.40
2023-04-18T16:48:29.493Z,12.37
2023-04-18T16:50:59.108Z,12.33
2023-04-18T16:53:29.243Z,12.31
2023-04-18T16:55:58.130Z,12.32
2023-04-18T16:58:27.262Z,12.31
2023-04-18T17:00:56.066Z,12.29
2023-04-18T17:03:25.194Z,12.26
2023-04-18T17:05:57.430Z,12.25
2023-04-18T17:08:28.854Z,12.23
2023-04-18T17:10:59.931Z,12.20
2023-04-18T17:13:31.819Z,12.20
2023-04-18T17:16:00.421Z,12.17
2023-04-18T17:18:30.115Z,12.14
2023-04-18T17:20:59.304Z,12.11
2023-04-18T17:23:29.196Z,12.07
2023-04-18T17:25:59.197Z,12.03
2023-04-18T17:28:28.565Z,12.00
2023-04-18T17:30:58.670Z,11.95
2023-04-18T17:33:29.489Z,11.90
2023-04-18T17:35:59.168Z,11.88
2023-04-18T17:38:28.528Z,11.88
2023-04-18T17:41:00.201Z,11.87
2023-04-18T17:43:29.762Z,11.85
2023-04-18T17:46:01.911Z,11.85
2023-04-18T17:48:30.959Z,11.84
2023-04-18T17:50:59.495Z,11.83
2023-04-18T17:53:31.462Z,11.82
2023-04-18T17:56:02.306Z,11.79
2023-04-18T17:58:31.874Z,11.78
2023-04-18T18:01:00.940Z,11.76
2023-04-18T18:03:31.332Z,11.75
2023-04-18T18:06:00.497Z,11.74
2023-04-18T18:08:30.965Z,11.72
2023-04-18T18:11:02.007Z,11.73
2023-04-18T18:13:30.938Z,11.74
2023-04-18T18:15:59.495Z,11.73
2023-04-18T18:18:30.163Z,11.69
2023-04-18T18:20:59.287Z,11.69
2023-04-18T18:23:27.858Z,11.65
2023-04-18T18:25:57.257Z,11.62
2023-04-18T18:28:26.268Z,11.61
2023-04-18T18:30:55.124Z,11.59
2023-04-18T18:33:25.356Z,11.58
2023-04-18T18:35:55.754Z,11.58
2023-04-18T18:38:26.692Z,11.58
2023-04-18T18:40:55.967Z,11.59
2023-04-18T18:43:26.610Z,11.59
2023-04-18T18:45:56.280Z,11.58
2023-04-18T18:48:25.105Z,11.58
2023-04-18T18:50:54.410Z,11.56
2023-04-18T18:53:23.557Z,11.53
2023-04-18T18:55:52.323Z,11.52
2023-04-18T18:58:22.065Z,11.53
2023-04-18T19:00:51.870Z,11.55
2023-04-18T19:03:23.814Z,11.55
2023-04-18T19:05:52.966Z,11.55
2023-04-18T19:08:22.233Z,11.55
2023-04-18T19:10:51.737Z,11.54
2023-04-18T19:13:23.431Z,11.53
2023-04-18T19:15:52.700Z,11.56
2023-04-18T19:18:21.614Z,11.56
2023-04-18T19:20:51.402Z,11.54
2023-04-18T19:23:20.293Z,11.51
2023-04-18T19:25:48.769Z,11.46
2023-04-18T19:28:18.851Z,11.42
2023-04-18T19:30:47.601Z,11.40
2023-04-18T19:33:16.920Z,11.37
2023-04-18T19:35:45.908Z,11.35
2023-04-18T19:38:15.307Z,11.34
2023-04-18T19:40:44.555Z,11.33
2023-04-18T19:43:14.112Z,11.33
2023-04-18T19:45:43.927Z,11.33
2023-04-18T19:48:13.291Z,11.30
2023-04-18T19:50:42.757Z,11.27
2023-04-18T19:53:12.194Z,11.25
2023-04-18T19:55:41.956Z,11.26
2023-04-18T19:58:12.529Z,11.29
2023-04-18T20:00:41.828Z,11.30
2023-04-18T20:03:11.657Z,11.30
2023-04-18T20:05:40.996Z,11.29
2023-04-18T20:08:10.050Z,11.26
2023-04-18T20:10:38.960Z,11.25
2023-04-18T20:13:08.701Z,11.23
2023-04-18T20:15:37.849Z,11.24
2023-04-18T20:18:06.995Z,11.25
2023-04-18T20:20:36.362Z,11.25
2023-04-18T20:23:05.177Z,11.27
2023-04-18T20:25:35.432Z,11.29
2023-04-18T20:28:05.321Z,11.31
2023-04-18T20:30:36.433Z,11.35
2023-04-18T20:33:06.738Z,11.39
2023-04-18T20:35:35.625Z,11.39
2023-04-18T20:38:07.927Z,11.38
2023-04-18T20:40:39.346Z,11.36
2023-04-18T20:43:09.291Z,11.35
2023-04-18T20:45:38.853Z,11.35
2023-04-18T20:48:08.072Z,11.34
2023-04-18T20:50:38.027Z,11.34
2023-04-18T20:53:06.838Z,11.36
2023-04-18T20:55:35.412Z,11.39
2023-04-18T20:58:04.421Z,11.39
2023-04-18T21:00:33.508Z,11.40
2023-04-18T21:03:02.084Z,11.44
2023-04-18T21:05:33.110Z,11.48
2023-04-18T21:08:02.303Z,11.50
2023-04-18T21:10:31.054Z,11.50
2023-04-18T21:13:01.540Z,11.48
2023-04-18T21:15:31.054Z,11.45
2023-04-18T21:18:00.121Z,11.42
2023-04-18T21:20:29.851Z,11.39
2023-04-18T21:22:59.113Z,11.37
2023-04-18T21:25:27.697Z,11.37
2023-04-18T21:27:57.118Z,11.39
2023-04-18T21:30:25.997Z,11.40
2023-04-18T21:32:54.673Z,11.42
2023-04-18T21:35:24.960Z,11.43
2023-04-18T21:37:54.591Z,11.45
2023-04-18T21:40:27.333Z,11.43
2023-04-18T21:42:56.196Z,11.40
2023-04-18T21:45:24.914Z,11.38
2023-04-18T21:47:55.675Z,11.33
2023-04-18T21:50:24.649Z,11.31
2023-04-18T21:52:53.193Z,11.32
2023-04-18T21:55:22.273Z,11.32
2023-04-18T21:57:51.246Z,11.33
2023-04-18T22:00:20.650Z,11.34
2023-04-18T22:02:50.322Z,11.34
2023-04-18T22:05:20.428Z,11.34
2023-04-18T22:07:57.379Z,11.35
2023-04-18T22:10:28.051Z,11.34
2023-04-18T22:12:58.649Z,11.33
2023-04-18T22:15:30.653Z,11.31
2023-04-18T22:17:59.678Z,11.30
2023-04-18T22:20:28.580Z,11.29
2023-04-18T22:22:58.165Z,11.29
2023-04-18T22:25:26.919Z,11.29
2023-04-18T22:27:55.365Z,11.29
2023-04-18T22:30:24.054Z,11.28
2023-04-18T22:32:52.755Z,11.24
2023-04-18T22:35:22.119Z,11.20
2023-04-18T22:37:51.191Z,11.15
2023-04-18T22:40:20.023Z,11.11
2023-04-18T22:42:48.501Z,11.08
2023-04-18T22:45:20.404Z,11.07
2023-04-18T22:47:49.989Z,11.05
2023-04-18T22:50:18.813Z,11.07
2023-04-18T22:52:49.236Z,11.08
2023-04-18T22:55:20.309Z,11.08
2023-04-18T22:57:49.225Z,11.11
2023-04-18T23:00:18.621Z,11.13
2023-04-18T23:02:48.134Z,11.11
2023-04-18T23:05:17.292Z,11.08
2023-04-18T23:07:46.911Z,11.06
2023-04-18T23:10:16.783Z,11.00
2023-04-18T23:12:46.161Z,10.94
2023-04-18T23:15:14.948Z,10.92
2023-04-18T23:17:44.356Z,10.86
2023-04-18T23:20:14.094Z,10.83
2023-04-18T23:22:43.062Z,10.79
2023-04-18T23:25:11.889Z,10.75
2023-04-18T23:27:40.547Z,10.73
2023-04-18T23:30:10.886Z,10.73
2023-04-18T23:32:39.496Z,10.74
2023-04-18T23:35:11.414Z,10.75
2023-04-18T23:37:40.883Z,10.75
2023-04-18T23:40:10.353Z,10.76
2023-04-18T23:42:39.197Z,10.74
2023-04-18T23:45:08.416Z,10.72
2023-04-18T23:47:37.762Z,10.67
2023-04-18T23:50:07.550Z,10.61
2023-04-18T23:52:38.655Z,10.58
2023-04-18T23:55:08.714Z,10.55
2023-04-18T23:57:37.253Z,10.55
